Time;durP1;ratioP1;P1;durP2;ratioP2;P2;SDS_P1;SDS_P2;PMS_P1;PMS_P2;Temp;Humidity;BMP_temperature;BMP_pressure;BME280_temperature;BME280_humidity;BME280_pressure;Samples;Min_cycle;Max_cycle;Signal;HPM_P1;HPM_P2
2023/10/13 00:02:01;;;;;;;18.02;10.20;;;;;;;16.37;100.00;101147.16;5001721;28;20023;-47
2023/10/13 00:04:27;;;;;;;13.38;10.45;;;;;;;16.37;100.00;101144.47;4998882;28;20095;-47
2023/10/13 00:06:59;;;;;;;14.98;9.95;;;;;;;16.36;100.00;101142.81;5004901;28;20053;-48
2023/10/13 00:09:26;;;;;;;17.05;9.80;;;;;;;16.37;100.00;101141.78;5000347;28;20038;-47
2023/10/13 00:11:53;;;;;;;17.90;9.52;;;;;;;16.38;100.00;101138.13;4999303;28;20032;-47
2023/10/13 00:14:21;;;;;;;17.30;10.70;;;;;;;16.36;100.00;101140.13;5007265;28;20093;-49
2023/10/13 00:17:05;;;;;;;13.40;9.15;;;;;;;16.36;100.00;101129.41;5003182;28;20125;-47
2023/10/13 00:19:37;;;;;;;13.65;8.93;;;;;;;16.35;100.00;101130.38;5001106;28;20053;-48
2023/10/13 00:22:09;;;;;;;12.48;8.90;;;;;;;16.34;100.00;101124.19;5002629;28;20422;-51
2023/10/13 00:24:42;;;;;;;14.15;9.02;;;;;;;16.34;100.00;101124.19;5003994;28;20103;-47
2023/10/13 00:27:29;;;;;;;14.20;9.10;;;;;;;16.33;100.00;101119.81;5008801;28;20031;-49
2023/10/13 00:30:17;;;;;;;16.98;9.25;;;;;;;16.32;100.00;101119.97;5001781;28;20034;-49
2023/10/13 00:32:54;;;;;;;16.40;9.45;;;;;;;16.32;100.00;101114.59;5022261;28;20041;-47
2023/10/13 00:35:35;;;;;;;15.57;9.35;;;;;;;16.30;100.00;101114.75;5003926;28;20038;-48
2023/10/13 00:38:04;;;;;;;13.32;8.85;;;;;;;16.28;100.00;101106.84;5003218;28;20033;-48
2023/10/13 00:43:03;;;;;;;13.68;9.40;;;;;;;16.28;100.00;101106.84;5007469;28;19963;-49
2023/10/13 00:45:33;;;;;;;13.80;8.52;;;;;;;16.25;100.00;101104.50;5001779;28;20465;-49
2023/10/13 00:48:01;;;;;;;12.77;8.00;;;;;;;16.26;100.00;101102.66;5005442;28;20485;-47
2023/10/13 00:50:26;;;;;;;13.73;8.55;;;;;;;16.23;100.00;101103.78;5003550;28;20031;-47
2023/10/13 00:52:51;;;;;;;11.20;8.30;;;;;;;16.25;100.00;101095.59;4998703;28;20026;-47
2023/10/13 00:55:22;;;;;;;14.90;8.50;;;;;;;16.23;100.00;101097.56;5007656;28;20022;-47
2023/10/13 00:57:53;;;;;;;12.90;7.88;;;;;;;16.22;100.00;101088.69;4997912;28;20426;-48
2023/10/13 01:00:19;;;;;;;13.77;8.27;;;;;;;16.22;100.00;101085.16;5007140;28;20038;-47
2023/10/13 01:02:54;;;;;;;13.68;8.43;;;;;;;16.20;100.00;101082.63;5000402;28;20030;-47
2023/10/13 01:05:20;;;;;;;11.95;8.00;;;;;;;16.20;100.00;101081.78;5006434;28;20052;-47
2023/10/13 01:07:52;;;;;;;12.90;7.97;;;;;;;16.18;100.00;101079.25;5000760;28;20041;-47
2023/10/13 01:10:19;;;;;;;14.32;7.72;;;;;;;16.19;100.00;101077.44;5002578;28;20030;-47
2023/10/13 01:12:45;;;;;;;13.73;8.23;;;;;;;16.18;100.00;101073.91;5000879;28;20149;-49
2023/10/13 01:15:16;;;;;;;14.27;7.80;;;;;;;16.17;100.00;101069.53;5011084;28;20041;-47
2023/10/13 01:17:44;;;;;;;10.55;7.18;;;;;;;16.16;100.00;101059.81;5002771;28;20037;-47
2023/10/13 01:20:11;;;;;;;13.85;7.40;;;;;;;16.15;100.00;101058.09;5003172;28;20030;-48
2023/10/13 01:22:36;;;;;;;11.88;7.30;;;;;;;16.14;100.00;101047.53;4999329;28;20026;-49
2023/10/13 01:25:06;;;;;;;13.23;7.03;;;;;;;16.15;100.00;101054.59;5005741;28;20026;-47
2023/10/13 01:27:38;;;;;;;10.15;7.05;;;;;;;16.11;100.00;101046.00;5001403;28;20269;-47
2023/10/13 01:30:13;;;;;;;15.02;7.05;;;;;;;16.13;100.00;101046.69;5001175;28;20403;-47
2023/10/13 01:32:40;;;;;;;12.23;6.93;;;;;;;16.11;100.00;101040.66;4999436;28;20034;-47
2023/10/13 01:35:07;;;;;;;11.40;7.05;;;;;;;16.12;100.00;101028.97;5001716;28;20033;-48
2023/10/13 01:37:32;;;;;;;14.48;6.85;;;;;;;16.10;100.00;101030.91;4997665;28;20038;-48
2023/10/13 01:39:58;;;;;;;12.73;6.47;;;;;;;16.10;100.00;101025.56;5003103;28;20426;-47
2023/10/13 01:42:24;;;;;;;14.23;6.82;;;;;;;16.09;100.00;101015.84;5000503;28;20422;-47
2023/10/13 01:44:50;;;;;;;12.82;6.65;;;;;;;16.09;100.00;101013.19;5007831;28;20464;-48
2023/10/13 01:47:16;;;;;;;13.30;6.30;;;;;;;16.06;100.00;101003.59;5001860;28;20030;-47
2023/10/13 01:49:42;;;;;;;12.95;6.80;;;;;;;16.06;100.00;101000.91;5007237;28;20697;-48
2023/10/13 01:52:11;;;;;;;11.93;6.85;;;;;;;16.06;100.00;101003.59;5019925;28;20264;-47
2023/10/13 01:54:40;;;;;;;13.25;7.07;;;;;;;16.04;100.00;100997.53;5001449;28;20026;-48
2023/10/13 01:57:06;;;;;;;13.35;6.57;;;;;;;16.04;100.00;100988.66;5001449;28;20018;-47
2023/10/13 01:59:32;;;;;;;9.55;6.68;;;;;;;16.03;100.00;100989.66;5002684;28;20034;-49
2023/10/13 02:02:00;;;;;;;14.38;7.50;;;;;;;16.03;100.00;100985.13;5006266;28;20048;-47
2023/10/13 02:04:27;;;;;;;11.73;6.87;;;;;;;16.04;100.00;100986.81;5006513;28;20466;-47
2023/10/13 02:06:52;;;;;;;12.30;7.47;;;;;;;16.04;100.00;100981.47;5001006;28;20034;-49
2023/10/13 02:09:25;;;;;;;10.70;7.88;;;;;;;16.05;100.00;100979.63;5004315;28;20029;-51
2023/10/13 02:11:54;;;;;;;11.00;7.28;;;;;;;16.04;100.00;100978.78;5001327;28;20065;-51
2023/10/13 02:14:22;;;;;;;15.13;8.10;;;;;;;16.07;100.00;100974.94;5014725;28;20026;-49
2023/10/13 02:16:50;;;;;;;14.07;8.02;;;;;;;16.06;100.00;100975.97;5009482;28;20037;-48
2023/10/13 02:19:15;;;;;;;17.08;9.30;;;;;;;16.06;100.00;100970.59;5003192;28;20113;-50
2023/10/13 02:21:43;;;;;;;15.60;10.00;;;;;;;16.06;100.00;100971.44;4998118;28;20066;-48
2023/10/13 02:24:18;;;;;;;16.00;9.07;;;;;;;16.07;100.00;100974.94;5002086;28;20469;-48
2023/10/13 02:26:44;;;;;;;21.05;10.38;;;;;;;16.08;100.00;100966.75;4999377;28;20038;-48
2023/10/13 02:29:12;;;;;;;15.50;10.57;;;;;;;16.09;100.00;100963.09;5002290;28;20076;-48
2023/10/13 02:31:39;;;;;;;23.52;11.18;;;;;;;16.08;100.00;100961.41;5010640;28;20037;-48
2023/10/13 02:34:08;;;;;;;17.17;11.25;;;;;;;16.09;100.00;100960.41;5002440;28;20126;-47
2023/10/13 02:36:46;;;;;;;17.73;11.93;;;;;;;16.11;100.00;100952.22;5000049;28;20031;-48
2023/10/13 02:39:13;;;;;;;15.65;11.85;;;;;;;16.10;100.00;100953.22;5002717;28;20037;-47
2023/10/13 02:41:41;;;;;;;16.77;12.48;;;;;;;16.13;100.00;100941.38;5000456;28;20026;-47
2023/10/13 02:44:08;;;;;;;17.00;13.05;;;;;;;16.13;100.00;100930.66;5000357;28;20076;-49
2023/10/13 02:46:39;;;;;;;18.27;12.85;;;;;;;16.13;100.00;100923.44;5035706;28;20120;-48
2023/10/13 02:49:11;;;;;;;20.25;13.05;;;;;;;16.13;100.00;100919.94;5003689;28;20037;-48
2023/10/13 02:51:37;;;;;;;20.50;13.82;;;;;;;16.15;100.00;100915.25;4999447;28;20041;-47
2023/10/13 02:54:18;;;;;;;21.95;14.57;;;;;;;16.14;100.00;100900.16;5007003;28;20655;-48
2023/10/13 02:57:03;;;;;;;24.25;14.77;;;;;;;16.16;100.00;100899.03;5002097;28;20034;-49
2023/10/13 02:59:55;;;;;;;20.92;15.00;;;;;;;16.15;100.00;100896.50;4997431;28;20087;-48
2023/10/13 03:02:25;;;;;;;22.55;16.15;;;;;;;16.17;100.00;100883.78;5002297;28;20030;-50
2023/10/13 03:04:59;;;;;;;25.60;16.10;;;;;;;16.17;100.00;100878.41;5001626;28;20455;-49
2023/10/13 03:07:31;;;;;;;24.55;16.77;;;;;;;16.18;100.00;100861.38;5000706;28;20030;-48
2023/10/13 03:10:09;;;;;;;24.35;16.98;;;;;;;16.19;100.00;100861.22;5003817;28;20033;-48
2023/10/13 03:12:35;;;;;;;25.55;16.58;;;;;;;16.19;100.00;100861.22;4999371;28;20042;-50
2023/10/13 03:17:43;;;;;;;27.27;16.90;;;;;;;16.21;100.00;100855.69;5003828;28;20045;-47
2023/10/13 03:20:12;;;;;;;26.38;17.45;;;;;;;16.22;100.00;100849.31;5000970;28;20072;-47
2023/10/13 03:22:37;;;;;;;31.42;18.40;;;;;;;16.22;100.00;100844.81;5002729;28;20026;-47
2023/10/13 03:25:05;;;;;;;26.63;18.07;;;;;;;16.25;100.00;100849.00;4995731;28;20047;-47
2023/10/13 03:28:16;;;;;;;27.17;18.00;;;;;;;16.25;100.00;100836.47;4999161;28;20648;-47
2023/10/13 03:30:17;;;;;;;28.17;18.25;;;;;;;16.27;100.00;100823.75;5005492;28;20509;-47
2023/10/13 03:32:47;;;;;;;29.83;20.83;;;;;;;16.30;100.00;100824.44;4993744;28;20109;-48
2023/10/13 03:35:24;;;;;;;30.42;19.73;;;;;;;16.30;100.00;100819.91;4999569;28;20073;-47
2023/10/13 03:37:53;;;;;;;38.63;21.48;;;;;;;16.30;100.00;100819.91;4998854;28;20412;-48
2023/10/13 03:43:00;;;;;;;28.73;21.90;;;;;;;16.37;100.00;100812.09;4996072;28;19935;-48
2023/10/13 03:45:32;;;;;;;34.25;21.48;;;;;;;16.36;100.00;100802.38;4998888;28;20056;-47
2023/10/13 03:47:57;;;;;;;34.10;20.63;;;;;;;16.36;100.00;100800.53;4997910;28;20034;-48
2023/10/13 03:50:32;;;;;;;37.28;22.60;;;;;;;16.38;100.00;100785.13;5002359;28;20026;-48
2023/10/13 03:53:00;;;;;;;35.38;21.30;;;;;;;16.40;100.00;100787.66;5006590;28;20076;-47
2023/10/13 03:55:29;;;;;;;31.38;21.75;;;;;;;16.40;100.00;100783.16;5021535;28;20506;-48
2023/10/13 03:57:54;;;;;;;32.33;21.50;;;;;;;16.43;100.00;100788.19;4996005;28;20560;-48
2023/10/13 04:00:24;;;;;;;32.28;22.08;;;;;;;16.45;100.00;100778.16;4999601;28;20026;-47
2023/10/13 04:05:38;;;;;;;31.90;20.83;;;;;;;16.49;100.00;100754.56;4993750;28;20088;-48
2023/10/13 04:18:47;;;;;;;27.70;19.98;;;;;;;16.55;100.00;100745.03;4998801;28;20514;-47
2023/10/13 04:24:09;;;;;;;27.70;19.52;;;;;;;16.60;100.00;100745.38;4998546;28;20040;-47
2023/10/13 04:26:42;;;;;;;25.27;17.92;;;;;;;16.62;100.00;100741.56;4998383;28;20030;-48
2023/10/13 04:29:27;;;;;;;27.15;18.25;;;;;;;16.65;100.00;100745.75;4998428;28;20045;-47
2023/10/13 04:32:00;;;;;;;26.08;18.25;;;;;;;16.66;100.00;100755.47;4998374;28;20121;-48
2023/10/13 04:34:28;;;;;;;27.17;17.83;;;;;;;16.68;100.00;100748.09;4994726;28;20034;-47
2023/10/13 04:37:10;;;;;;;23.53;17.10;;;;;;;16.71;100.00;100744.28;4996395;28;20026;-48
2023/10/13 04:39:38;;;;;;;23.90;16.15;;;;;;;16.72;100.00;100745.94;4998287;28;20273;-49
2023/10/13 04:42:13;;;;;;;24.83;17.52;;;;;;;16.73;100.00;100740.41;4998189;28;20056;-48
2023/10/13 04:47:09;;;;;;;20.80;15.90;;;;;;;16.77;100.00;100735.56;5000966;28;20042;-49
2023/10/13 04:54:45;;;;;;;19.15;13.95;;;;;;;16.80;100.00;100736.13;4997337;28;20530;-48
2023/10/13 06:29:49;;;;;;;15.20;8.02;;;;;;;16.86;100.00;100624.66;5003147;28;20443;-49
2023/10/13 06:32:16;;;;;;;13.65;8.25;;;;;;;16.87;100.00;100628.19;4998604;28;20019;-47
2023/10/13 06:34:44;;;;;;;13.35;8.70;;;;;;;16.87;100.00;100621.00;4993904;28;20034;-47
2023/10/13 06:37:22;;;;;;;17.17;7.97;;;;;;;16.87;100.00;100607.59;5004214;28;20041;-46
2023/10/13 06:39:59;;;;;;;12.82;7.88;;;;;;;16.88;100.00;100611.09;5006736;28;20065;-48
2023/10/13 06:42:27;;;;;;;17.02;8.13;;;;;;;16.89;100.00;100604.75;4996197;28;20046;-50
2023/10/13 06:44:55;;;;;;;16.70;8.20;;;;;;;16.88;100.00;100595.00;5009365;28;20058;-47
2023/10/13 06:47:22;;;;;;;22.75;8.57;;;;;;;16.90;100.00;100593.00;5003410;28;20268;-47
2023/10/13 06:49:50;;;;;;;16.08;7.40;;;;;;;16.91;100.00;100594.69;4998045;28;20117;-46
2023/10/13 06:52:16;;;;;;;13.98;8.07;;;;;;;16.91;100.00;100592.00;5000922;28;20023;-48
2023/10/13 06:54:43;;;;;;;16.65;8.18;;;;;;;16.92;100.00;100596.34;4997507;28;20049;-47
2023/10/13 06:57:14;;;;;;;19.33;8.15;;;;;;;16.92;100.00;100582.91;4998219;28;20108;-49
2023/10/13 06:59:40;;;;;;;13.52;7.93;;;;;;;16.92;100.00;100586.47;5021522;28;20102;-48
2023/10/13 07:02:08;;;;;;;15.93;8.05;;;;;;;16.93;100.00;100579.25;5004369;28;20033;-48
2023/10/13 07:04:34;;;;;;;16.73;7.93;;;;;;;16.94;100.00;100576.41;5000417;28;20105;-47
2023/10/13 07:07:00;;;;;;;19.52;8.02;;;;;;;16.96;100.00;100573.56;5000464;28;20506;-48
2023/10/13 07:12:06;;;;;;;18.20;8.65;;;;;;;16.96;100.00;100560.97;5002469;28;20122;-47
2023/10/13 07:14:36;;;;;;;22.15;8.63;;;;;;;16.98;100.00;100552.75;4996919;28;20100;-47
2023/10/13 07:17:04;;;;;;;17.40;8.65;;;;;;;17.00;100.00;100548.91;4997852;28;20030;-47
2023/10/13 07:19:31;;;;;;;18.85;8.63;;;;;;;17.02;100.00;100546.06;5003146;28;20022;-47
2023/10/13 07:22:18;;;;;;;16.45;7.93;;;;;;;17.02;100.00;100546.91;5001666;28;20469;-47
2023/10/13 07:24:50;;;;;;;15.65;8.02;;;;;;;17.05;100.00;100551.06;5001559;28;20033;-46
2023/10/13 07:27:23;;;;;;;19.42;8.05;;;;;;;17.07;100.00;100541.03;4995117;28;20042;-45
2023/10/13 07:30:05;;;;;;;17.75;7.80;;;;;;;17.10;100.00;100538.03;4999550;28;20041;-46
2023/10/13 07:32:33;;;;;;;22.25;8.20;;;;;;;17.12;100.00;100546.75;5000279;28;20042;-46
2023/10/13 07:35:05;;;;;;;18.65;7.90;;;;;;;17.16;100.00;100547.22;5013544;28;20026;-47
2023/10/13 07:37:32;;;;;;;20.05;8.45;;;;;;;17.16;100.00;100548.06;5030195;28;20034;-48
2023/10/13 07:39:57;;;;;;;16.30;7.93;;;;;;;17.20;100.00;100538.69;5004444;28;20022;-51
2023/10/13 07:42:30;;;;;;;21.02;7.97;;;;;;;17.25;100.00;100550.75;4995697;28;20029;-49
2023/10/13 07:44:56;;;;;;;27.92;7.90;;;;;;;17.29;100.00;100536.81;4992465;28;20137;-54
2023/10/13 07:47:24;;;;;;;18.02;8.00;;;;;;;17.32;100.00;100535.63;4996437;28;20093;-52
2023/10/13 07:49:50;;;;;;;21.83;8.02;;;;;;;17.36;100.00;100529.75;4995338;28;20026;-52
2023/10/13 07:55:10;;;;;;;18.48;7.75;;;;;;;17.41;100.00;100517.69;4994049;28;20045;-54
2023/10/13 07:57:35;;;;;;;19.15;7.50;;;;;;;17.45;100.00;100522.53;4995992;28;20042;-53
2023/10/13 08:00:26;;;;;;;17.27;7.30;;;;;;;17.47;100.00;100523.22;4992526;28;20861;-54
2023/10/13 08:06:07;;;;;;;17.92;7.20;;;;;;;17.52;100.00;100509.25;4997041;28;20437;-53
2023/10/13 08:08:39;;;;;;;20.27;8.18;;;;;;;17.54;100.00;100526.88;4995840;28;20417;-52
2023/10/13 08:11:24;;;;;;;20.67;7.88;;;;;;;17.54;100.00;100518.00;4997112;28;20038;-50
2023/10/13 08:13:54;;;;;;;21.70;7.03;;;;;;;17.58;100.00;100513.94;4997587;28;20022;-51
2023/10/13 08:16:27;;;;;;;18.00;7.13;;;;;;;17.61;100.00;100505.56;4995370;28;20029;-53
2023/10/13 08:18:53;;;;;;;16.70;7.05;;;;;;;17.66;100.00;100507.72;4996740;28;20384;-50
2023/10/13 08:21:31;;;;;;;15.53;7.33;;;;;;;17.70;100.00;100511.72;4998926;28;20030;-54
2023/10/13 08:23:58;;;;;;;20.33;7.30;;;;;;;17.75;100.00;100504.84;4998314;28;20707;-54
2023/10/13 08:26:57;;;;;;;16.02;7.47;;;;;;;17.82;100.00;100518.44;4996487;28;20081;-53
2023/10/13 08:34:38;;;;;;;19.52;7.18;;;;;;;17.94;100.00;100505.50;4999585;28;20543;-50
2023/10/13 08:37:19;;;;;;;14.90;6.72;;;;;;;17.97;100.00;100502.47;4996686;28;20030;-50
2023/10/13 08:50:47;;;;;;;20.80;7.35;;;;;;;18.18;100.00;100498.31;4997023;28;20045;-53
2023/10/13 08:53:28;;;;;;;18.40;6.28;;;;;;;18.20;100.00;100488.22;4999776;28;20506;-55
2023/10/13 09:04:21;;;;;;;22.95;6.88;;;;;;;18.31;100.00;100477.91;4999093;28;20056;-53
2023/10/13 09:10:32;;;;;;;19.23;6.47;;;;;;;18.38;100.00;100463.75;4996989;28;20042;-53
2023/10/13 09:15:06;;;;;;;15.30;6.90;;;;;;;18.43;100.00;100459.50;4995181;28;20511;-54
2023/10/13 09:17:41;;;;;;;15.00;6.50;;;;;;;18.47;100.00;100476.16;4995153;28;20037;-52
2023/10/13 09:25:35;;;;;;;18.20;6.57;;;;;;;18.53;100.00;100474.59;5008438;28;20109;-54
2023/10/13 09:28:14;;;;;;;17.08;6.72;;;;;;;18.56;100.00;100474.22;4996853;28;20148;-53
2023/10/13 09:30:56;;;;;;;15.52;6.40;;;;;;;18.58;100.00;100475.72;4999310;28;20029;-55
2023/10/13 09:33:35;;;;;;;16.13;6.63;;;;;;;18.62;100.00;100466.28;4998862;28;20031;-54
2023/10/13 09:36:06;;;;;;;16.70;7.15;;;;;;;18.64;100.00;100458.88;4998351;28;20473;-52
2023/10/13 09:38:36;;;;;;;12.32;6.18;;;;;;;18.66;100.00;100459.50;4996285;28;20059;-54
2023/10/13 09:41:26;;;;;;;13.07;6.22;;;;;;;18.75;100.00;100460.31;4997180;28;20128;-51
2023/10/13 09:43:52;;;;;;;19.98;7.20;;;;;;;18.81;100.00;100456.03;4999299;28;20035;-51
2023/10/13 09:46:24;;;;;;;16.10;6.03;;;;;;;18.85;100.00;100454.69;4998014;28;20038;-54
2023/10/13 09:49:04;;;;;;;14.18;6.15;;;;;;;18.88;100.00;100461.56;5001349;28;20030;-51
2023/10/13 09:51:31;;;;;;;17.58;6.43;;;;;;;18.91;100.00;100451.28;4998900;28;20117;-54
2023/10/13 09:54:06;;;;;;;11.15;6.35;;;;;;;18.95;100.00;100446.34;4996848;28;20029;-53
2023/10/13 09:56:51;;;;;;;18.30;6.38;;;;;;;19.01;100.00;100440.25;4999447;28;20117;-55
2023/10/13 09:59:24;;;;;;;18.50;6.65;;;;;;;19.09;100.00;100434.78;4995792;28;20403;-50
2023/10/13 10:01:57;;;;;;;17.40;6.30;;;;;;;19.20;100.00;100436.19;5002849;28;20034;-52
2023/10/13 10:04:23;;;;;;;17.95;6.38;;;;;;;19.27;100.00;100434.44;5002869;28;20033;-54
2023/10/13 10:07:02;;;;;;;16.00;6.18;;;;;;;19.36;100.00;100430.63;4997877;28;20022;-52
2023/10/13 10:09:37;;;;;;;15.20;6.05;;;;;;;19.41;100.00;100425.53;5002882;28;20392;-52
2023/10/13 10:12:25;;;;;;;16.13;6.80;;;;;;;19.49;100.00;100426.47;4996071;28;20377;-52
2023/10/13 10:15:07;;;;;;;13.65;6.38;;;;;;;19.52;100.00;100426.09;4996053;28;20030;-53
2023/10/13 10:17:42;;;;;;;13.77;5.97;;;;;;;19.55;100.00;100421.19;5001127;28;20027;-51
2023/10/13 10:20:21;;;;;;;13.75;5.97;;;;;;;19.55;100.00;100415.78;4994365;28;20030;-53
2023/10/13 10:23:00;;;;;;;21.13;6.50;;;;;;;19.60;100.00;100420.59;4997954;28;20114;-52
2023/10/13 10:25:35;;;;;;;15.73;6.25;;;;;;;19.62;100.00;100418.56;4998376;28;20036;-54
2023/10/13 10:28:06;;;;;;;17.15;7.10;;;;;;;19.63;100.00;100417.53;4993070;28;20120;-54
2023/10/13 10:30:41;;;;;;;18.98;6.78;;;;;;;19.65;100.00;100402.03;4994421;28;20030;-52
2023/10/13 10:33:18;;;;;;;19.60;6.43;;;;;;;19.68;100.00;100401.63;4998513;28;20056;-51
2023/10/13 10:35:46;;;;;;;22.45;5.93;;;;;;;19.73;100.00;100414.53;4997184;28;20111;-50
2023/10/13 10:38:32;;;;;;;17.75;5.97;;;;;;;19.74;100.00;100408.97;5003454;28;20040;-51
2023/10/13 10:41:04;;;;;;;14.40;6.18;;;;;;;19.77;100.00;100402.41;4996351;28;20342;-52
2023/10/13 10:43:47;;;;;;;15.85;6.40;;;;;;;19.80;100.00;100415.50;4996045;28;20472;-54
2023/10/13 10:46:18;;;;;;;17.50;6.60;;;;;;;19.81;100.00;100419.03;5001431;28;20059;-51
2023/10/13 10:48:45;;;;;;;15.23;6.03;;;;;;;19.81;98.13;100413.66;4999832;28;20469;-53
2023/10/13 10:51:21;;;;;;;18.08;7.10;;;;;;;19.81;100.00;100401.00;5015544;28;20038;-51
2023/10/13 10:53:46;;;;;;;18.65;6.80;;;;;;;19.81;99.64;100416.34;4997524;28;20114;-51
2023/10/13 10:56:19;;;;;;;13.93;6.38;;;;;;;19.83;97.22;100408.91;4997459;28;20437;-51
2023/10/13 10:58:54;;;;;;;19.58;6.70;;;;;;;19.82;97.58;100420.69;4999114;28;20057;-52
2023/10/13 11:01:46;;;;;;;18.30;6.70;;;;;;;19.83;98.28;100412.41;4995456;28;20031;-53
2023/10/13 11:04:18;;;;;;;19.30;5.97;;;;;;;19.87;98.39;100412.91;4994609;28;20057;-52
2023/10/13 11:07:00;;;;;;;17.25;6.65;;;;;;;19.89;98.83;100405.44;4999143;28;20038;-53
2023/10/13 11:12:15;;;;;;;23.90;7.28;;;;;;;20.02;98.21;100408.28;4992985;28;20040;-49
2023/10/13 11:14:41;;;;;;;20.90;7.32;;;;;;;20.05;97.84;100391.75;4995732;28;20025;-51
2023/10/13 11:17:21;;;;;;;14.30;6.70;;;;;;;20.07;99.08;100386.16;4996180;28;20027;-49
2023/10/13 11:19:46;;;;;;;19.48;7.18;;;;;;;20.12;96.22;100383.72;4997281;28;20057;-48
2023/10/13 11:25:11;;;;;;;23.58;7.00;;;;;;;20.17;94.57;100359.72;4991278;28;20033;-52
2023/10/13 11:27:55;;;;;;;35.05;13.48;;;;;;;20.23;96.54;100364.31;4995248;28;20031;-52
2023/10/13 11:30:30;;;;;;;27.30;11.60;;;;;;;20.28;94.05;100342.16;4996956;28;20037;-55
2023/10/13 11:33:00;;;;;;;21.42;7.00;;;;;;;20.33;96.24;100348.69;4996763;28;20559;-54
2023/10/13 11:35:48;;;;;;;16.02;6.68;;;;;;;20.39;94.71;100333.56;4993944;28;20030;-54
2023/10/13 11:38:14;;;;;;;18.27;6.68;;;;;;;20.44;95.42;100325.72;4996041;28;20033;-52
2023/10/13 11:43:24;;;;;;;19.88;6.85;;;;;;;20.55;92.06;100318.97;4998005;28;20044;-53
2023/10/13 11:46:12;;;;;;;13.35;6.57;;;;;;;20.60;91.24;100307.56;4995005;28;20078;-50
2023/10/13 11:48:40;;;;;;;24.50;7.28;;;;;;;20.68;90.75;100312.84;4996635;28;20026;-50
2023/10/13 11:51:17;;;;;;;21.00;6.72;;;;;;;20.70;91.11;100308.94;4995261;28;20141;-52
2023/10/13 11:53:42;;;;;;;19.73;6.07;;;;;;;20.74;89.22;100314.75;4996918;28;20030;-50
2023/10/13 11:56:09;;;;;;;18.60;7.15;;;;;;;20.78;90.47;100318.72;4995425;28;20071;-49
2023/10/13 11:58:38;;;;;;;20.77;6.57;;;;;;;20.81;88.61;100296.75;4995795;28;20022;-49
2023/10/13 12:09:51;;;;;;;17.17;6.68;;;;;;;21.06;88.02;100288.97;4998562;28;20084;-49
2023/10/13 12:12:04;;;;;;;23.48;7.60;;;;;;;21.14;87.19;100288.00;5004628;28;20044;-50
2023/10/13 12:14:32;;;;;;;19.52;6.75;;;;;;;21.18;89.09;100291.13;4994867;28;20070;-50
2023/10/13 12:17:03;;;;;;;15.88;6.13;;;;;;;21.25;86.24;100283.91;4991682;28;20375;-53
2023/10/13 12:19:29;;;;;;;17.92;6.38;;;;;;;21.32;85.68;100282.06;4994810;28;20387;-51
2023/10/13 12:21:55;;;;;;;20.97;6.30;;;;;;;21.37;85.74;100278.75;4998940;28;20112;-50
2023/10/13 12:27:18;;;;;;;18.98;6.35;;;;;;;21.53;83.10;100282.97;5001369;28;20560;-50
2023/10/13 12:29:51;;;;;;;20.30;6.32;;;;;;;21.58;84.43;100292.16;5000847;28;20033;-49
2023/10/13 12:32:25;;;;;;;23.70;6.80;;;;;;;21.60;84.38;100289.25;4997744;28;20473;-49
2023/10/13 12:35:17;;;;;;;16.23;6.20;;;;;;;21.66;81.96;100284.88;5000575;28;20036;-50
2023/10/13 12:53:50;;;;;;;24.10;6.93;;;;;;;21.68;81.55;100270.13;4989930;28;20343;-54
2023/10/13 12:56:17;;;;;;;19.17;5.93;;;;;;;21.68;79.96;100270.13;4996445;28;20033;-55
2023/10/13 12:58:51;;;;;;;15.02;5.65;;;;;;;21.67;79.25;100262.25;4986572;28;20612;-55
2023/10/13 13:01:20;;;;;;;23.23;6.03;;;;;;;21.72;79.48;100262.47;4999064;28;20049;-54
2023/10/13 13:03:46;;;;;;;15.27;6.00;;;;;;;21.75;79.40;100267.44;4989434;28;20026;-52
2023/10/13 13:06:24;;;;;;;19.70;6.07;;;;;;;21.79;77.58;100276.81;4997731;28;20030;-54
2023/10/13 13:08:53;;;;;;;16.13;5.82;;;;;;;21.81;77.76;100280.13;4995531;28;20489;-54
2023/10/13 13:11:18;;;;;;;19.95;5.70;;;;;;;21.81;78.74;100266.63;4995440;28;20026;-53
2023/10/13 13:13:46;;;;;;;17.55;6.00;;;;;;;21.83;76.32;100256.41;4992098;28;20026;-54
2023/10/13 13:16:11;;;;;;;18.92;6.53;;;;;;;21.81;75.67;100256.63;4997963;28;20061;-52
2023/10/13 13:18:37;;;;;;;17.05;5.38;;;;;;;21.84;74.11;100259.97;4994835;28;20545;-53
2023/10/13 13:21:06;;;;;;;20.58;5.47;;;;;;;21.83;74.21;100267.22;4993782;28;20038;-51
2023/10/13 13:23:31;;;;;;;;;;;;;;;21.88;78.32;100258.50;4995833;28;20038;-53
2023/10/13 13:25:56;;;;;;;15.93;5.65;;;;;;;21.84;74.67;100262.69;4991722;28;19914;-53
2023/10/13 13:28:24;;;;;;;17.00;5.40;;;;;;;21.84;74.09;100257.28;4995684;28;20026;-51
2023/10/13 13:30:50;;;;;;;13.38;5.03;;;;;;;21.81;74.30;100243.09;4994077;28;20031;-52
2023/10/13 13:33:17;;;;;;;14.32;4.80;;;;;;;21.81;73.54;100253.09;4991257;28;20034;-53
2023/10/13 13:35:48;;;;;;;21.95;5.60;;;;;;;21.76;74.85;100256.41;4992606;28;20060;-52
2023/10/13 13:38:21;;;;;;;18.02;5.43;;;;;;;21.73;73.58;100262.25;4990430;28;20049;-52
2023/10/13 13:40:49;;;;;;;19.52;5.53;;;;;;;21.71;73.51;100261.59;4990757;28;20034;-51
2023/10/13 13:43:31;;;;;;;19.40;5.65;;;;;;;21.66;74.29;100255.16;4994732;28;20362;-51
2023/10/13 13:46:00;;;;;;;22.63;4.97;;;;;;;21.63;73.58;100256.38;4994166;28;20070;-52
2023/10/13 13:48:27;;;;;;;19.40;5.35;;;;;;;21.57;75.37;100246.41;4993605;28;20112;-51
2023/10/13 13:50:55;;;;;;;16.83;4.80;;;;;;;21.55;74.43;100248.47;4990232;28;20583;-52
2023/10/13 13:53:31;;;;;;;24.50;4.85;;;;;;;21.53;73.04;100256.81;4994687;28;20026;-52
2023/10/13 13:56:00;;;;;;;17.27;5.65;;;;;;;21.54;73.47;100247.66;4995875;28;20440;-51
2023/10/13 13:58:25;;;;;;;14.68;4.57;;;;;;;21.54;74.20;100253.03;4995756;28;20283;-52
2023/10/13 14:00:50;;;;;;;19.50;5.05;;;;;;;21.55;73.69;100243.06;4986822;28;20035;-52
2023/10/13 14:03:33;;;;;;;18.73;5.22;;;;;;;21.53;75.76;100237.03;4995932;28;20049;-52
2023/10/13 14:05:59;;;;;;;21.50;5.85;;;;;;;21.53;74.14;100239.75;4989215;28;20598;-52
2023/10/13 14:08:27;;;;;;;17.13;5.13;;;;;;;21.51;75.35;100239.94;4996155;28;20044;-52
2023/10/13 14:13:48;;;;;;;17.33;5.28;;;;;;;21.51;75.24;100245.34;4992459;28;20571;-52
2023/10/13 14:16:20;;;;;;;16.17;5.20;;;;;;;21.50;75.31;100240.16;4994160;28;20038;-51
2023/10/13 14:18:47;;;;;;;14.38;5.30;;;;;;;21.48;76.83;100245.75;4995254;28;20139;-51
2023/10/13 14:21:19;;;;;;;15.13;5.20;;;;;;;21.51;75.81;100245.34;4990471;28;20149;-53
2023/10/13 14:23:45;;;;;;;22.33;6.00;;;;;;;21.53;75.49;100240.59;4993167;28;20484;-51
2023/10/13 14:26:21;;;;;;;15.02;5.05;;;;;;;21.56;75.46;100245.56;4991121;28;20064;-52
2023/10/13 14:28:51;;;;;;;17.83;5.30;;;;;;;21.62;73.16;100254.75;4992764;28;20506;-51
2023/10/13 14:31:20;;;;;;;13.20;5.07;;;;;;;21.62;74.21;100249.34;5008580;28;20033;-54
2023/10/13 14:33:46;;;;;;;15.68;5.57;;;;;;;21.61;73.71;100240.38;5022246;28;20098;-54
2023/10/13 14:36:11;;;;;;;16.33;5.07;;;;;;;21.60;74.67;100236.03;4994810;28;20060;-52
2023/10/13 14:38:37;;;;;;;17.08;4.97;;;;;;;21.60;74.17;100246.84;4997538;28;20030;-55
2023/10/13 14:41:02;;;;;;;15.00;5.47;;;;;;;21.59;75.21;100249.75;4995933;28;20030;-53
2023/10/13 14:43:28;;;;;;;12.65;5.13;;;;;;;21.56;75.09;100247.44;4994296;28;20731;-56
2023/10/13 14:45:53;;;;;;;11.90;5.50;;;;;;;21.55;74.59;100241.22;4990081;28;20137;-52
2023/10/13 14:48:19;;;;;;;18.30;5.18;;;;;;;21.54;76.04;100247.66;4988802;28;20019;-51
2023/10/13 14:50:45;;;;;;;11.88;4.75;;;;;;;21.54;75.04;100253.03;4987348;28;20069;-53
2023/10/13 14:53:10;;;;;;;14.13;4.95;;;;;;;21.51;74.89;100248.03;4989549;28;20026;-55
2023/10/13 14:55:39;;;;;;;13.98;5.63;;;;;;;21.48;75.31;100248.44;4989360;28;20046;-55